createdAt,value
2022-12-05T00:01:00.802Z,7.47
2022-12-05T00:03:28.293Z,7.90
2022-12-05T00:05:55.755Z,7.75
2022-12-05T00:08:23.113Z,7.82
2022-12-05T00:10:50.544Z,7.45
2022-12-05T00:13:17.955Z,7.07
2022-12-05T00:15:45.378Z,7.93
2022-12-05T00:18:12.817Z,7.22
2022-12-05T00:20:45.862Z,8.93
2022-12-05T00:23:13.291Z,6.50
2022-12-05T00:25:41.099Z,6.53
2022-12-05T00:28:08.642Z,6.55
2022-12-05T00:30:36.157Z,7.40
2022-12-05T00:33:03.602Z,6.45
2022-12-05T00:35:30.997Z,6.70
2022-12-05T00:37:58.432Z,6.78
2022-12-05T00:40:25.888Z,6.40
2022-12-05T00:42:53.333Z,6.10
2022-12-05T00:45:20.767Z,6.13
2022-12-05T00:47:48.206Z,6.72
2022-12-05T00:50:15.581Z,6.57
2022-12-05T00:52:43.088Z,6.82
2022-12-05T00:55:10.691Z,6.70
2022-12-05T00:57:38.106Z,5.88
2022-12-05T01:00:06.675Z,6.40
2022-12-05T01:02:34.117Z,5.82
2022-12-05T01:05:01.508Z,6.28
2022-12-05T01:07:29.056Z,6.05
2022-12-05T01:09:56.792Z,5.85
2022-12-05T01:12:24.503Z,6.47
2022-12-05T01:14:51.915Z,6.53
2022-12-05T01:17:19.373Z,6.43
2022-12-05T01:19:46.726Z,6.32
2022-12-05T01:22:14.307Z,6.07
2022-12-05T01:24:41.726Z,6.32
2022-12-05T01:27:09.183Z,5.60
2022-12-05T01:29:36.558Z,5.88
2022-12-05T01:32:04.377Z,5.50
2022-12-05T01:34:31.784Z,5.65
2022-12-05T01:36:59.240Z,5.72
2022-12-05T01:39:26.787Z,5.32
2022-12-05T01:41:54.178Z,5.90
2022-12-05T01:44:24.736Z,5.82
2022-12-05T01:46:52.662Z,5.18
2022-12-05T01:49:24.842Z,6.10
2022-12-05T01:51:57.089Z,5.28
2022-12-05T01:54:24.816Z,5.30
2022-12-05T01:56:57.078Z,5.65
2022-12-05T01:59:25.741Z,4.93
2022-12-05T02:01:53.124Z,5.25
2022-12-05T02:04:20.566Z,5.40
2022-12-05T02:06:48.232Z,5.57
2022-12-05T02:09:15.795Z,5.55
2022-12-05T02:11:47.645Z,5.22
2022-12-05T02:14:17.892Z,4.90
2022-12-05T02:16:51.646Z,4.57
2022-12-05T02:19:37.705Z,4.72
2022-12-05T02:22:27.853Z,5.78
2022-12-05T02:25:04.329Z,5.13
2022-12-05T02:27:50.593Z,4.78
2022-12-05T02:30:19.757Z,4.75
2022-12-05T02:33:00.491Z,4.65
2022-12-05T02:35:35.380Z,5.18
2022-12-05T02:38:14.471Z,5.53
2022-12-05T02:40:44.857Z,4.70
2022-12-05T02:43:17.141Z,4.35
2022-12-05T02:45:44.914Z,4.18
2022-12-05T02:48:13.813Z,4.55
2022-12-05T02:50:42.369Z,3.85
2022-12-05T02:53:12.215Z,3.60
2022-12-05T02:55:41.036Z,3.67
2022-12-05T02:58:12.417Z,3.70
2022-12-05T03:00:40.943Z,3.75
2022-12-05T03:03:13.348Z,3.70
2022-12-05T03:05:40.815Z,3.80
2022-12-05T03:08:11.410Z,3.50
2022-12-05T03:10:41.035Z,3.38
2022-12-05T03:13:12.590Z,3.50
2022-12-05T03:15:41.739Z,3.17
2022-12-05T03:18:19.441Z,3.35
2022-12-05T03:20:49.029Z,2.88
2022-12-05T03:23:19.213Z,3.28
2022-12-05T03:25:46.656Z,3.28
2022-12-05T03:28:34.298Z,2.85
2022-12-05T03:31:06.155Z,2.63
2022-12-05T03:33:38.050Z,2.97
2022-12-05T03:36:18.416Z,3.03
2022-12-05T03:38:52.449Z,3.35
2022-12-05T03:41:35.852Z,3.10
2022-12-05T03:44:09.954Z,3.42
2022-12-05T03:46:40.262Z,3.42
2022-12-05T03:49:10.786Z,3.65
2022-12-05T03:51:59.533Z,3.20
2022-12-05T03:54:28.505Z,3.45
2022-12-05T03:57:25.268Z,3.50
2022-12-05T03:59:55.504Z,3.65
2022-12-05T04:02:27.216Z,3.67
2022-12-05T04:05:02.587Z,3.30
2022-12-05T04:09:58.551Z,3.20
2022-12-05T04:12:28.485Z,3.08
2022-12-05T04:15:01.051Z,3.45
2022-12-05T04:17:32.186Z,3.25
2022-12-05T04:20:31.769Z,3.72
2022-12-05T04:22:59.474Z,3.25
2022-12-05T04:25:34.184Z,3.55
2022-12-05T04:28:21.233Z,3.70
2022-12-05T04:31:01.482Z,3.20
2022-12-05T04:33:44.343Z,3.45
2022-12-05T04:36:17.144Z,3.50
2022-12-05T04:38:44.759Z,3.28
2022-12-05T04:41:14.502Z,3.78
2022-12-05T04:43:43.124Z,4.32
2022-12-05T04:46:12.704Z,3.90
2022-12-05T04:48:41.618Z,3.65
2022-12-05T04:51:13.253Z,3.72
2022-12-05T04:53:42.294Z,4.45
2022-12-05T04:56:10.612Z,4.28
2022-12-05T04:58:38.069Z,5.15
2022-12-05T05:01:12.686Z,4.43
2022-12-05T05:03:45.944Z,4.65
2022-12-05T05:06:14.013Z,3.80
2022-12-05T05:08:59.649Z,3.70
2022-12-05T05:13:54.634Z,3.90
2022-12-05T05:16:26.506Z,3.67
2022-12-05T05:18:54.456Z,4.25
2022-12-05T05:21:21.834Z,3.88
2022-12-05T05:23:49.292Z,3.90
2022-12-05T05:26:17.002Z,3.70
2022-12-05T05:28:44.422Z,3.75
2022-12-05T05:31:12.126Z,4.00
2022-12-05T05:33:39.612Z,4.43
2022-12-05T05:36:11.646Z,4.35
2022-12-05T05:38:40.158Z,4.03
2022-12-05T05:41:12.544Z,4.32
2022-12-05T05:43:40.582Z,4.43
2022-12-05T05:46:08.128Z,4.78
2022-12-05T05:48:35.669Z,5.43
2022-12-05T05:51:04.053Z,5.45
2022-12-05T05:53:31.567Z,5.72
2022-12-05T05:55:59.078Z,5.40
2022-12-05T05:58:26.488Z,5.63
2022-12-05T06:00:53.908Z,5.63
2022-12-05T06:03:21.482Z,5.50
2022-12-05T06:05:57.645Z,5.15
2022-12-05T06:08:25.344Z,4.90
2022-12-05T06:10:52.775Z,4.85
2022-12-05T06:13:20.251Z,5.10
2022-12-05T06:15:47.627Z,5.63
2022-12-05T06:18:15.110Z,5.45
2022-12-05T06:20:42.649Z,5.15
2022-12-05T06:23:10.180Z,5.32
2022-12-05T06:25:37.545Z,5.18
2022-12-05T06:28:05.085Z,5.50
2022-12-05T06:30:32.480Z,5.32
2022-12-05T06:32:59.920Z,5.10
2022-12-05T06:35:27.355Z,4.30
2022-12-05T06:37:54.766Z,4.90
2022-12-05T06:40:22.335Z,6.18
2022-12-05T06:42:49.729Z,5.05
2022-12-05T06:45:17.154Z,5.13
2022-12-05T06:47:44.657Z,4.60
2022-12-05T06:50:12.020Z,5.45
2022-12-05T06:52:39.732Z,5.13
2022-12-05T06:55:07.505Z,5.25
2022-12-05T06:57:35.015Z,5.30
2022-12-05T07:00:21.468Z,5.60
2022-12-05T07:02:51.133Z,4.85
2022-12-05T07:05:18.715Z,4.90
2022-12-05T07:07:46.458Z,5.60
2022-12-05T07:10:13.960Z,5.82
2022-12-05T07:12:41.339Z,6.05
2022-12-05T07:15:08.994Z,5.55
2022-12-05T07:17:37.252Z,5.75
2022-12-05T07:20:04.986Z,6.18
2022-12-05T07:22:32.377Z,6.68
2022-12-05T07:24:59.868Z,5.95
2022-12-05T07:27:28.388Z,5.97
2022-12-05T07:29:56.696Z,6.32
2022-12-05T07:32:24.500Z,7.10
2022-12-05T07:34:55.315Z,6.60
2022-12-05T07:37:23.874Z,7.30
2022-12-05T07:39:52.393Z,6.55
2022-12-05T07:42:19.950Z,7.05
2022-12-05T07:44:47.326Z,6.22
2022-12-05T07:47:14.856Z,5.85
2022-12-05T07:49:42.304Z,6.78
2022-12-05T07:52:10.055Z,6.78
2022-12-05T07:54:37.520Z,7.57
2022-12-05T07:57:05.094Z,6.97
2022-12-05T07:59:32.433Z,6.13
2022-12-05T08:01:59.977Z,5.50
2022-12-05T08:04:27.446Z,6.47
2022-12-05T08:06:54.880Z,5.43
2022-12-05T08:09:22.291Z,7.80
2022-12-05T08:11:52.530Z,6.95
2022-12-05T08:14:20.529Z,6.10
2022-12-05T08:16:48.014Z,6.43
2022-12-05T08:19:17.234Z,6.95
2022-12-05T08:21:44.762Z,8.35
2022-12-05T08:24:12.512Z,9.70
2022-12-05T08:26:40.513Z,10.00
2022-12-05T08:29:12.086Z,5.65
2022-12-05T08:31:49.705Z,9.15
2022-12-05T08:34:18.277Z,7.93
2022-12-05T08:36:46.181Z,6.68
2022-12-05T08:39:16.090Z,6.35
2022-12-05T08:41:47.467Z,5.75
2022-12-05T08:44:17.063Z,7.45
2022-12-05T08:46:45.371Z,6.18
2022-12-05T08:49:12.993Z,6.43
2022-12-05T08:51:41.197Z,5.80
2022-12-05T08:54:08.627Z,6.10
2022-12-05T08:56:36.109Z,6.10
2022-12-05T08:59:06.013Z,6.30
2022-12-05T09:01:34.019Z,6.82
2022-12-05T09:04:02.518Z,4.90
2022-12-05T09:06:30.484Z,7.15
2022-12-05T09:08:59.030Z,6.47
2022-12-05T09:11:28.134Z,6.95
2022-12-05T09:13:57.018Z,7.15
2022-12-05T09:16:26.250Z,6.90
2022-12-05T09:18:53.679Z,4.97
2022-12-05T09:21:22.426Z,6.30
2022-12-05T09:23:49.960Z,5.32
2022-12-05T09:26:19.067Z,5.97
2022-12-05T09:28:46.532Z,5.50
2022-12-05T09:31:15.304Z,5.60
2022-12-05T09:33:42.923Z,5.35
2022-12-05T09:36:14.072Z,6.65
2022-12-05T09:38:41.609Z,8.10
2022-12-05T09:41:12.162Z,9.15
2022-12-05T09:43:47.781Z,9.93
2022-12-05T09:46:35.358Z,7.35
2022-12-05T09:49:03.630Z,7.60
2022-12-05T09:51:31.665Z,9.18
2022-12-05T09:53:59.171Z,5.68
2022-12-05T09:56:28.276Z,5.65
2022-12-05T09:58:56.441Z,8.88
2022-12-05T10:01:39.034Z,7.65
2022-12-05T10:04:06.656Z,7.38
2022-12-05T10:06:41.428Z,7.28
2022-12-05T10:09:22.567Z,8.35
2022-12-05T10:11:49.971Z,7.63
2022-12-05T10:14:17.337Z,6.72
2022-12-05T10:16:50.462Z,6.07
2022-12-05T10:19:25.372Z,5.13
2022-12-05T10:21:58.878Z,5.55
2022-12-05T10:24:39.637Z,5.50
2022-12-05T10:27:08.670Z,4.63
2022-12-05T10:29:36.097Z,4.60
2022-12-05T10:32:08.478Z,4.20
2022-12-05T10:34:39.890Z,4.20
2022-12-05T10:37:18.204Z,5.30
2022-12-05T10:39:46.286Z,4.10
2022-12-05T10:42:15.983Z,4.78
2022-12-05T10:44:43.727Z,4.75
2022-12-05T10:47:11.919Z,5.20
2022-12-05T10:49:39.659Z,4.85
2022-12-05T10:52:07.305Z,4.05
2022-12-05T10:54:40.482Z,5.38
2022-12-05T10:57:23.231Z,4.50
2022-12-05T10:59:50.689Z,6.22
2022-12-05T11:02:22.898Z,5.07
2022-12-05T11:04:50.562Z,5.18
2022-12-05T11:07:25.713Z,5.85
2022-12-05T11:09:53.210Z,4.85
2022-12-05T11:12:22.097Z,4.43
2022-12-05T11:15:08.157Z,4.15
2022-12-05T11:17:37.110Z,4.75
2022-12-05T11:20:25.065Z,4.72
2022-12-05T11:22:56.524Z,5.03
2022-12-05T11:25:27.009Z,5.90
2022-12-05T11:27:58.377Z,6.30
2022-12-05T11:30:29.468Z,9.13
2022-12-05T11:33:32.829Z,6.85
2022-12-05T11:36:19.525Z,5.95
2022-12-05T11:38:47.094Z,7.10
2022-12-05T11:41:18.523Z,7.18
2022-12-05T11:43:45.979Z,6.05
2022-12-05T11:46:16.395Z,10.55
2022-12-05T11:48:43.913Z,7.65
2022-12-05T11:51:23.578Z,7.10
2022-12-05T11:54:11.197Z,5.38
2022-12-05T11:56:39.542Z,6.22
2022-12-05T11:59:10.231Z,6.07
2022-12-05T12:01:37.679Z,5.55
2022-12-05T12:04:37.578Z,5.22
2022-12-05T12:07:17.021Z,5.55
2022-12-05T12:10:08.319Z,6.13
2022-12-05T12:12:46.923Z,5.50
2022-12-05T12:15:17.567Z,6.00
2022-12-05T12:17:55.407Z,12.73
2022-12-05T12:20:29.198Z,8.30
2022-12-05T12:23:22.866Z,13.93
2022-12-05T12:26:04.377Z,8.07
2022-12-05T12:28:38.086Z,7.70
2022-12-05T12:31:25.728Z,8.02
2022-12-05T12:34:16.250Z,7.88
2022-12-05T12:36:49.569Z,7.10
2022-12-05T12:39:30.824Z,6.45
2022-12-05T12:41:58.376Z,6.93
2022-12-05T12:44:50.804Z,6.72
2022-12-05T12:47:24.238Z,6.63
2022-12-05T12:50:09.983Z,7.10
2022-12-05T12:55:17.064Z,6.18
2022-12-05T12:58:11.028Z,6.63
2022-12-05T13:00:38.630Z,7.63
2022-12-05T13:03:06.239Z,7.97
2022-12-05T13:05:33.696Z,8.90
2022-12-05T13:08:01.291Z,9.73
2022-12-05T13:10:39.497Z,8.23
2022-12-05T13:13:07.536Z,8.57
2022-12-05T13:15:47.422Z,7.60
2022-12-05T13:18:19.207Z,8.40
2022-12-05T13:20:48.769Z,7.82
2022-12-05T13:23:18.476Z,10.27
2022-12-05T13:25:46.877Z,8.27
2022-12-05T13:28:25.915Z,7.43
2022-12-05T13:31:02.596Z,8.35
2022-12-05T13:33:50.538Z,8.45
2022-12-05T13:36:38.785Z,9.80
2022-12-05T13:39:45.014Z,11.02
2022-12-05T13:42:33.271Z,9.40
2022-12-05T13:45:09.446Z,11.27
2022-12-05T13:47:46.587Z,11.40
2022-12-05T13:50:16.264Z,12.85
2022-12-05T13:52:43.621Z,11.75
2022-12-05T13:55:23.517Z,10.88
2022-12-05T13:57:52.926Z,13.35
2022-12-05T14:00:26.338Z,12.02
2022-12-05T14:03:04.851Z,10.90
2022-12-05T14:05:38.368Z,9.07
2022-12-05T14:08:24.653Z,10.57
2022-12-05T14:10:52.128Z,12.45
2022-12-05T14:13:19.516Z,10.00
2022-12-05T14:15:48.943Z,11.27
2022-12-05T14:18:22.314Z,12.38
2022-12-05T14:20:49.819Z,16.05
2022-12-05T14:23:17.226Z,14.07
2022-12-05T14:26:08.693Z,13.02
2022-12-05T14:28:45.654Z,12.60
2022-12-05T14:31:13.147Z,12.65
2022-12-05T14:33:40.663Z,14.52
2022-12-05T14:36:14.346Z,14.00
2022-12-05T14:38:42.918Z,14.98
2022-12-05T14:41:13.342Z,16.90
2022-12-05T14:43:41.729Z,21.73
2022-12-05T14:46:16.125Z,26.85
2022-12-05T14:48:48.721Z,39.80
2022-12-05T14:51:31.248Z,37.78
2022-12-05T14:54:07.051Z,37.90
2022-12-05T14:56:40.570Z,15.63
2022-12-05T14:59:28.959Z,12.32
2022-12-05T15:01:59.030Z,16.08
2022-12-05T15:04:36.459Z,16.20
2022-12-05T15:07:05.772Z,20.90
2022-12-05T15:09:48.909Z,24.90
2022-12-05T15:12:20.411Z,17.50
2022-12-05T15:14:53.317Z,16.45
2022-12-05T15:17:23.787Z,12.55
2022-12-05T15:20:15.376Z,15.63
2022-12-05T15:22:42.899Z,12.25
2022-12-05T15:25:36.624Z,12.82
2022-12-05T15:28:06.011Z,11.75
2022-12-05T15:30:35.653Z,12.65
2022-12-05T15:33:03.335Z,15.75
2022-12-05T15:35:32.995Z,16.60
2022-12-05T15:38:10.649Z,14.02
2022-12-05T15:40:38.444Z,14.63
2022-12-05T15:43:24.482Z,14.75
2022-12-05T15:45:52.043Z,14.48
2022-12-05T15:48:22.872Z,14.18
2022-12-05T15:50:52.057Z,14.88
2022-12-05T15:53:38.006Z,15.63
2022-12-05T15:56:16.408Z,15.57
2022-12-05T15:58:50.028Z,14.85
2022-12-05T16:01:19.992Z,19.10
2022-12-05T16:03:51.091Z,20.80
2022-12-05T16:06:21.773Z,14.32
2022-12-05T16:08:50.042Z,13.93
2022-12-05T16:11:17.894Z,13.70
2022-12-05T16:14:04.050Z,14.07
2022-12-05T16:16:36.734Z,14.13
2022-12-05T16:19:14.552Z,15.10
2022-12-05T16:21:46.854Z,15.77
2022-12-05T16:24:17.196Z,15.43
2022-12-05T16:26:45.290Z,17.35
2022-12-05T16:29:29.384Z,14.65
2022-12-05T16:31:57.703Z,13.77
2022-12-05T16:34:26.225Z,14.27
2022-12-05T16:36:55.019Z,14.50
2022-12-05T16:39:23.136Z,16.52
2022-12-05T16:41:51.366Z,14.27
2022-12-05T16:44:28.237Z,13.70
2022-12-05T16:46:56.861Z,13.98
2022-12-05T16:49:42.800Z,13.60
2022-12-05T16:52:14.743Z,13.98
2022-12-05T16:54:43.190Z,14.05
2022-12-05T16:57:13.038Z,15.75
2022-12-05T16:59:43.022Z,16.23
2022-12-05T17:02:14.770Z,17.15
2022-12-05T17:04:42.582Z,17.25
2022-12-05T17:07:10.233Z,17.50
2022-12-05T17:09:37.944Z,14.27
2022-12-05T17:12:12.669Z,13.77
2022-12-05T17:14:40.327Z,14.13
2022-12-05T17:17:15.451Z,14.30
2022-12-05T17:19:42.941Z,12.55
2022-12-05T17:22:11.690Z,13.35
2022-12-05T17:24:39.102Z,13.70
2022-12-05T17:27:07.242Z,13.57
2022-12-05T17:29:35.984Z,13.45
2022-12-05T17:32:03.991Z,13.30
2022-12-05T17:34:31.598Z,13.05
2022-12-05T17:37:00.279Z,14.13
2022-12-05T17:39:28.758Z,13.05
2022-12-05T17:41:56.567Z,14.63
2022-12-05T17:44:24.461Z,16.13
2022-12-05T17:46:51.922Z,16.70
2022-12-05T17:49:20.115Z,16.58
2022-12-05T17:52:20.034Z,14.27
2022-12-05T17:54:35.560Z,14.68
2022-12-05T17:57:02.926Z,14.13
2022-12-05T17:59:30.459Z,13.38
2022-12-05T18:01:57.974Z,14.65
2022-12-05T18:04:25.549Z,14.50
2022-12-05T18:06:52.936Z,15.07
2022-12-05T18:09:20.518Z,15.25
2022-12-05T18:11:47.927Z,13.95
2022-12-05T18:14:15.454Z,14.50
2022-12-05T18:16:43.169Z,14.55
2022-12-05T18:19:10.884Z,16.58
2022-12-05T18:21:38.723Z,16.55
2022-12-05T18:24:06.244Z,15.02
2022-12-05T18:26:33.672Z,15.00
2022-12-05T18:29:01.051Z,14.65
2022-12-05T18:31:29.302Z,15.10
2022-12-05T18:33:56.731Z,14.05
2022-12-05T18:36:24.126Z,14.70
2022-12-05T18:38:52.302Z,14.20
2022-12-05T18:41:20.403Z,15.23
2022-12-05T18:43:48.013Z,16.42
2022-12-05T18:46:15.464Z,15.95
2022-12-05T18:48:47.192Z,15.98
2022-12-05T18:51:15.110Z,16.13
2022-12-05T18:53:42.892Z,15.13
2022-12-05T18:56:27.395Z,14.90
2022-12-05T18:59:05.229Z,15.33
2022-12-05T19:01:34.039Z,17.15
2022-12-05T19:04:02.360Z,15.95
2022-12-05T19:06:31.503Z,15.88
2022-12-05T19:09:01.060Z,15.63
2022-12-05T19:11:28.930Z,16.10
2022-12-05T19:13:57.385Z,15.95
2022-12-05T19:16:25.354Z,16.85
2022-12-05T19:18:57.182Z,16.00
2022-12-05T19:21:25.819Z,15.43
2022-12-05T19:23:53.628Z,15.18
2022-12-05T19:26:21.617Z,15.38
2022-12-05T19:28:49.103Z,15.15
2022-12-05T19:31:18.551Z,14.45
2022-12-05T19:33:47.521Z,14.70
2022-12-05T19:36:16.205Z,15.82
2022-12-05T19:38:44.784Z,16.23
2022-12-05T19:41:13.377Z,15.48
2022-12-05T19:43:41.136Z,15.90
2022-12-05T19:46:09.565Z,14.68
2022-12-05T19:48:37.053Z,15.25
2022-12-05T19:51:04.552Z,15.02
2022-12-05T19:53:33.077Z,15.65
2022-12-05T19:56:01.734Z,16.13
2022-12-05T19:58:29.466Z,16.55
2022-12-05T20:00:57.064Z,16.60
2022-12-05T20:03:24.548Z,15.70
2022-12-05T20:05:58.684Z,16.38
2022-12-05T20:08:26.435Z,15.98
2022-12-05T20:10:54.099Z,16.20
2022-12-05T20:13:45.988Z,16.08
2022-12-05T20:16:10.688Z,15.90
2022-12-05T20:18:39.999Z,16.63
2022-12-05T20:21:14.446Z,17.25
2022-12-05T20:23:42.311Z,16.43
2022-12-05T20:26:11.071Z,19.10
2022-12-05T20:28:38.921Z,16.65
2022-12-05T20:31:07.834Z,15.70
2022-12-05T20:33:35.668Z,17.63
2022-12-05T20:36:07.676Z,19.00
2022-12-05T20:38:35.661Z,16.58
2022-12-05T20:41:04.042Z,15.85
2022-12-05T20:43:31.790Z,17.70
2022-12-05T20:46:04.613Z,18.77
2022-12-05T20:48:32.159Z,16.73
2022-12-05T20:51:09.686Z,17.67
2022-12-05T20:53:41.203Z,17.35
2022-12-05T20:56:12.790Z,18.20
2022-12-05T20:58:40.881Z,17.33
2022-12-05T21:01:10.003Z,16.13
2022-12-05T21:03:40.109Z,17.30
2022-12-05T21:06:08.633Z,17.60
2022-12-05T21:08:36.014Z,16.73
2022-12-05T21:11:03.434Z,17.00
2022-12-05T21:13:32.347Z,18.02
2022-12-05T21:16:02.563Z,17.35
2022-12-05T21:18:30.541Z,17.52
2022-12-05T21:21:02.409Z,17.10
2022-12-05T21:23:30.330Z,17.17
2022-12-05T21:26:01.559Z,16.95
2022-12-05T21:28:30.750Z,15.75
2022-12-05T21:31:07.175Z,16.50
2022-12-05T21:33:34.713Z,16.42
2022-12-05T21:36:02.339Z,17.02
2022-12-05T21:38:29.769Z,17.00
2022-12-05T21:40:57.183Z,16.77
2022-12-05T21:43:24.648Z,16.67
2022-12-05T21:45:56.104Z,17.95
2022-12-05T21:48:24.569Z,17.52
2022-12-05T21:50:52.627Z,16.80
2022-12-05T21:53:20.820Z,16.48
2022-12-05T21:55:48.519Z,15.73
2022-12-05T21:58:16.059Z,15.15
2022-12-05T22:00:43.464Z,17.13
2022-12-05T22:03:15.040Z,17.42
2022-12-05T22:05:43.831Z,18.35
2022-12-05T22:08:11.873Z,16.73
2022-12-05T22:10:39.574Z,15.93
2022-12-05T22:13:06.943Z,16.75
2022-12-05T22:15:34.674Z,17.63
2022-12-05T22:18:02.079Z,16.83
2022-12-05T22:20:29.590Z,15.70
2022-12-05T22:22:56.986Z,18.58
2022-12-05T22:25:24.434Z,18.58
2022-12-05T22:27:51.801Z,16.85
2022-12-05T22:30:19.686Z,16.13
2022-12-05T22:32:47.157Z,16.70
2022-12-05T22:35:14.775Z,15.93
2022-12-05T22:37:42.207Z,16.40
2022-12-05T22:40:10.104Z,17.23
2022-12-05T22:42:37.560Z,15.93
2022-12-05T22:45:05.151Z,16.85
2022-12-05T22:47:32.705Z,17.00
2022-12-05T22:50:00.294Z,17.02
2022-12-05T22:52:27.944Z,16.85
2022-12-05T22:54:55.303Z,16.20
2022-12-05T22:57:22.777Z,16.92
2022-12-05T22:59:50.122Z,17.30
2022-12-05T23:02:17.596Z,16.60
2022-12-05T23:04:44.953Z,18.30
2022-12-05T23:07:12.445Z,17.02
2022-12-05T23:09:39.810Z,16.63
2022-12-05T23:12:07.415Z,16.25
2022-12-05T23:14:34.777Z,16.63
2022-12-05T23:17:02.201Z,15.40
2022-12-05T23:19:29.569Z,16.00
2022-12-05T23:21:57.030Z,15.82
2022-12-05T23:24:24.446Z,15.55
2022-12-05T23:26:51.893Z,15.52
2022-12-05T23:29:19.297Z,16.48
2022-12-05T23:31:46.892Z,15.80
2022-12-05T23:34:14.318Z,16.30
2022-12-05T23:36:41.912Z,15.93
2022-12-05T23:39:09.381Z,16.05
2022-12-05T23:41:36.917Z,16.10
2022-12-05T23:44:04.661Z,17.00
2022-12-05T23:46:32.198Z,16.38
2022-12-05T23:48:59.696Z,17.00
2022-12-05T23:51:28.706Z,17.33
2022-12-05T23:53:57.617Z,17.40
2022-12-05T23:56:26.392Z,17.17
2022-12-05T23:58:54.390Z,17.58
